createdAt,value
2018-01-12T00:02:15.882Z,5.00
2018-01-12T00:04:43.605Z,5.10
2018-01-12T00:07:11.233Z,5.10
2018-01-12T00:09:38.865Z,5.20
2018-01-12T00:12:06.541Z,5.40
2018-01-12T00:14:35.020Z,5.40
2018-01-12T00:17:02.831Z,5.40
2018-01-12T00:19:30.612Z,5.40
2018-01-12T00:21:58.281Z,5.40
2018-01-12T00:24:27.042Z,5.40
2018-01-12T00:26:54.861Z,5.40
2018-01-12T00:29:22.542Z,5.50
2018-01-12T00:31:50.237Z,5.50
2018-01-12T00:34:17.969Z,5.60
2018-01-12T00:36:45.766Z,5.60
2018-01-12T00:39:14.308Z,5.60
2018-01-12T00:41:42.149Z,5.60
2018-01-12T00:44:09.897Z,5.60
2018-01-12T00:46:37.656Z,5.60
2018-01-12T00:49:05.394Z,5.60
2018-01-12T00:51:33.159Z,5.60
2018-01-12T00:54:00.926Z,5.60
2018-01-12T00:56:28.649Z,5.60
2018-01-12T00:58:56.346Z,5.60
2018-01-12T01:01:24.873Z,5.60
2018-01-12T01:03:52.518Z,5.60
2018-01-12T01:06:20.226Z,5.60
2018-01-12T01:08:47.948Z,5.50
2018-01-12T01:11:16.462Z,5.50
2018-01-12T01:13:44.244Z,5.50
2018-01-12T01:16:11.856Z,5.50
2018-01-12T01:18:39.545Z,5.50
2018-01-12T01:21:07.280Z,5.50
2018-01-12T01:23:34.971Z,5.50
2018-01-12T01:26:02.675Z,5.50
2018-01-12T01:28:31.035Z,5.50
2018-01-12T01:30:58.687Z,5.50
2018-01-12T01:33:26.374Z,5.50
2018-01-12T01:35:54.067Z,5.50
2018-01-12T01:38:21.800Z,5.60
2018-01-12T01:40:49.607Z,5.60
2018-01-12T01:43:17.213Z,5.50
2018-01-12T01:45:44.912Z,5.50
2018-01-12T01:48:12.534Z,5.60
2018-01-12T01:50:40.263Z,5.60
2018-01-12T01:53:07.854Z,5.60
2018-01-12T01:55:36.475Z,5.60
2018-01-12T01:58:04.336Z,5.60
2018-01-12T02:00:31.954Z,5.60
2018-01-12T02:02:59.773Z,5.70
2018-01-12T02:05:27.522Z,5.70
2018-01-12T02:07:55.327Z,5.60
2018-01-12T02:10:23.061Z,5.60
2018-01-12T02:12:51.434Z,5.60
2018-01-12T02:15:19.993Z,5.60
2018-01-12T02:17:47.671Z,5.50
2018-01-12T02:20:15.400Z,5.60
2018-01-12T02:22:43.092Z,5.60
2018-01-12T02:25:10.875Z,5.60
2018-01-12T02:27:38.499Z,5.60
2018-01-12T02:30:06.143Z,5.60
2018-01-12T02:32:34.662Z,5.60
2018-01-12T02:35:02.337Z,5.60
2018-01-12T02:37:30.066Z,5.60
2018-01-12T02:39:57.769Z,5.60
2018-01-12T02:42:26.294Z,5.60
2018-01-12T02:44:54.082Z,5.60
2018-01-12T02:47:21.923Z,5.50
2018-01-12T02:49:49.667Z,5.40
2018-01-12T02:52:18.153Z,5.50
2018-01-12T02:54:46.001Z,5.50
2018-01-12T02:57:13.855Z,5.50
2018-01-12T02:59:41.630Z,5.60
2018-01-12T03:02:09.668Z,5.70
2018-01-12T03:04:37.536Z,5.70
2018-01-12T03:07:05.263Z,5.70
2018-01-12T03:09:32.993Z,5.70
2018-01-12T03:12:00.647Z,5.70
2018-01-12T03:14:28.302Z,5.70
2018-01-12T03:16:56.897Z,5.50
2018-01-12T03:19:25.268Z,5.50
2018-01-12T03:21:52.922Z,5.50
2018-01-12T03:24:20.600Z,5.60
2018-01-12T03:26:48.515Z,5.60
2018-01-12T03:29:16.450Z,5.60
2018-01-12T03:31:44.237Z,5.60
2018-01-12T03:34:12.337Z,5.60
2018-01-12T03:36:40.066Z,5.70
2018-01-12T03:39:08.498Z,5.60
2018-01-12T03:41:36.266Z,5.60
2018-01-12T03:44:03.931Z,5.70
2018-01-12T03:46:31.591Z,5.60
2018-01-12T03:48:59.466Z,5.60
2018-01-12T03:51:27.107Z,5.60
2018-01-12T03:53:54.807Z,5.60
2018-01-12T03:56:22.516Z,5.60
2018-01-12T03:58:50.230Z,5.70
2018-01-12T04:01:18.965Z,5.60
2018-01-12T04:03:46.617Z,5.60
2018-01-12T04:06:15.118Z,5.40
2018-01-12T04:08:43.099Z,5.40
2018-01-12T04:11:10.822Z,5.40
2018-01-12T04:13:38.647Z,5.40
2018-01-12T04:16:08.121Z,5.40
2018-01-12T04:18:35.891Z,5.40
2018-01-12T04:21:03.877Z,5.40
2018-01-12T04:23:31.572Z,5.50
2018-01-12T04:25:59.234Z,5.50
2018-01-12T04:28:27.088Z,5.60
2018-01-12T04:30:54.891Z,5.60
2018-01-12T04:33:22.805Z,5.60
2018-01-12T04:35:50.488Z,5.50
2018-01-12T04:38:18.264Z,5.40
2018-01-12T04:40:45.952Z,5.50
2018-01-12T04:43:13.633Z,5.50
2018-01-12T04:45:41.261Z,5.50
2018-01-12T04:48:09.745Z,5.50
2018-01-12T04:50:38.248Z,5.50
2018-01-12T04:53:05.946Z,5.50
2018-01-12T04:55:34.388Z,5.60
2018-01-12T04:58:02.918Z,5.50
2018-01-12T05:00:30.630Z,5.50
2018-01-12T05:02:59.204Z,5.50
2018-01-12T05:05:26.923Z,5.50
2018-01-12T05:07:55.423Z,5.60
2018-01-12T05:10:23.192Z,5.60
2018-01-12T05:12:51.046Z,5.60
2018-01-12T05:15:18.791Z,5.60
2018-01-12T05:17:46.436Z,5.50
2018-01-12T05:20:14.200Z,5.60
2018-01-12T05:22:41.869Z,5.50
2018-01-12T05:25:09.589Z,5.60
2018-01-12T05:27:37.290Z,5.50
2018-01-12T05:30:04.934Z,5.50
2018-01-12T05:32:32.735Z,5.40
2018-01-12T05:35:00.382Z,5.30
2018-01-12T05:37:28.046Z,5.20
2018-01-12T05:39:55.761Z,5.20
2018-01-12T05:42:23.551Z,5.20
2018-01-12T05:44:52.076Z,5.30
2018-01-12T05:47:19.799Z,5.30
2018-01-12T05:49:48.279Z,5.40
2018-01-12T05:52:15.963Z,5.40
2018-01-12T05:54:43.649Z,5.50
2018-01-12T05:57:11.393Z,5.50
2018-01-12T05:59:39.323Z,5.40
2018-01-12T06:02:18.856Z,5.40
2018-01-12T06:04:59.127Z,5.50
2018-01-12T06:07:26.781Z,5.50
2018-01-12T06:09:54.417Z,5.50
2018-01-12T06:12:22.205Z,5.60
2018-01-12T06:14:49.931Z,5.40
2018-01-12T06:17:17.597Z,5.30
2018-01-12T06:19:45.330Z,5.20
2018-01-12T06:22:13.069Z,5.20
2018-01-12T06:24:40.855Z,5.30
2018-01-12T06:27:08.513Z,5.40
2018-01-12T06:29:36.967Z,5.50
2018-01-12T06:32:05.004Z,5.50
2018-01-12T06:34:32.595Z,5.50
2018-01-12T06:37:00.242Z,5.50
2018-01-12T06:39:27.874Z,5.50
2018-01-12T06:41:55.493Z,5.50
2018-01-12T06:44:23.201Z,5.40
2018-01-12T06:46:50.860Z,5.40
2018-01-12T06:49:18.526Z,5.40
2018-01-12T06:51:46.141Z,5.40
2018-01-12T06:54:13.839Z,5.50
2018-01-12T06:56:42.355Z,5.50
2018-01-12T06:59:11.050Z,5.40
2018-01-12T07:01:39.115Z,5.50
2018-01-12T07:04:08.881Z,5.40
2018-01-12T07:06:37.372Z,5.40
2018-01-12T07:09:06.281Z,5.40
2018-01-12T07:11:35.149Z,5.50
2018-01-12T07:14:03.134Z,5.50
2018-01-12T07:16:30.750Z,5.50
2018-01-12T07:18:58.589Z,5.50
2018-01-12T07:21:38.009Z,5.50
2018-01-12T07:24:05.909Z,5.50
2018-01-12T07:26:33.618Z,5.50
2018-01-12T07:29:01.337Z,5.50
2018-01-12T07:31:29.936Z,5.60
2018-01-12T07:33:57.625Z,5.60
2018-01-12T07:36:25.304Z,5.60
2018-01-12T07:38:52.936Z,5.50
2018-01-12T07:41:20.558Z,5.50
2018-01-12T07:43:48.231Z,5.50
2018-01-12T07:46:15.890Z,5.50
2018-01-12T07:48:43.589Z,5.50
2018-01-12T07:51:11.987Z,5.50
2018-01-12T07:53:40.365Z,5.60
2018-01-12T07:56:08.750Z,5.50
2018-01-12T07:58:37.129Z,5.50
2018-01-12T08:01:10.632Z,5.50
2018-01-12T08:03:39.008Z,5.50
2018-01-12T08:06:07.861Z,5.40
2018-01-12T08:08:35.604Z,5.40
2018-01-12T08:11:03.266Z,5.40
2018-01-12T08:13:30.935Z,5.30
2018-01-12T08:15:58.729Z,5.30
2018-01-12T08:18:27.413Z,5.40
2018-01-12T08:20:55.824Z,5.40
2018-01-12T08:23:23.464Z,5.40
2018-01-12T08:25:53.154Z,5.40
2018-01-12T08:28:21.034Z,5.40
2018-01-12T08:30:49.235Z,5.50
2018-01-12T08:33:17.091Z,5.50
2018-01-12T08:35:45.502Z,5.50
2018-01-12T08:38:13.213Z,5.40
2018-01-12T08:40:41.221Z,5.50
2018-01-12T08:43:08.856Z,5.50
2018-01-12T08:45:37.236Z,5.60
2018-01-12T08:48:05.708Z,5.60
2018-01-12T08:50:33.470Z,5.60
2018-01-12T08:53:01.875Z,5.50
2018-01-12T08:55:29.690Z,5.50
2018-01-12T08:57:57.337Z,5.50
2018-01-12T09:00:25.010Z,5.60
2018-01-12T09:02:52.708Z,5.60
2018-01-12T09:05:21.140Z,5.70
2018-01-12T09:07:48.756Z,5.70
2018-01-12T09:10:17.241Z,5.60
2018-01-12T09:12:45.116Z,5.60
2018-01-12T09:15:29.301Z,5.60
2018-01-12T09:18:00.823Z,5.60
2018-01-12T09:20:35.345Z,5.70
2018-01-12T09:23:26.805Z,5.70
2018-01-12T09:25:54.452Z,5.90
2018-01-12T09:28:22.051Z,6.00
2018-01-12T09:30:49.717Z,6.00
2018-01-12T09:33:17.341Z,6.00
2018-01-12T09:35:45.017Z,6.10
2018-01-12T09:38:20.523Z,6.10
2018-01-12T09:40:48.211Z,6.10
2018-01-12T09:43:15.967Z,6.10
2018-01-12T09:45:44.309Z,6.10
2018-01-12T09:48:38.071Z,6.10
2018-01-12T09:51:09.591Z,6.20
2018-01-12T09:53:37.305Z,6.20
2018-01-12T09:56:05.910Z,6.20
2018-01-12T09:58:33.597Z,6.00
2018-01-12T10:01:03.177Z,6.00
2018-01-12T10:03:31.611Z,6.10
2018-01-12T10:05:59.208Z,6.10
2018-01-12T10:08:26.902Z,6.00
2018-01-12T10:10:54.504Z,6.00
2018-01-12T10:13:22.120Z,6.00
2018-01-12T10:15:49.735Z,6.10
2018-01-12T10:18:35.156Z,6.20
2018-01-12T10:21:08.966Z,6.30
2018-01-12T10:23:37.378Z,6.30
2018-01-12T10:26:06.012Z,6.40
2018-01-12T10:28:34.438Z,6.40
2018-01-12T10:31:02.156Z,6.30
2018-01-12T10:33:42.644Z,6.40
2018-01-12T10:36:10.216Z,6.30
2018-01-12T10:38:37.826Z,6.30
2018-01-12T10:41:17.447Z,6.40
2018-01-12T10:43:45.030Z,6.40
2018-01-12T10:46:36.317Z,6.40
2018-01-12T10:49:08.918Z,6.50
2018-01-12T10:51:37.513Z,6.60
2018-01-12T10:54:05.100Z,6.60
2018-01-12T10:56:33.589Z,6.60
2018-01-12T10:59:02.008Z,6.70
2018-01-12T11:01:29.582Z,6.70
2018-01-12T11:03:57.314Z,6.70
2018-01-12T11:06:24.979Z,6.80
2018-01-12T11:08:52.665Z,6.80
2018-01-12T11:11:20.397Z,6.90
2018-01-12T11:13:48.012Z,7.00
2018-01-12T11:16:15.754Z,7.00
2018-01-12T11:18:43.392Z,7.10
2018-01-12T11:21:10.983Z,7.20
2018-01-12T11:23:38.665Z,7.10
2018-01-12T11:26:06.294Z,7.10
2018-01-12T11:28:33.903Z,7.10
2018-01-12T11:31:01.521Z,7.10
2018-01-12T11:33:29.229Z,7.10
2018-01-12T11:35:57.725Z,7.30
2018-01-12T11:38:25.349Z,7.30
2018-01-12T11:40:53.026Z,7.30
2018-01-12T11:43:20.840Z,7.30
2018-01-12T11:45:49.230Z,7.30
2018-01-12T11:48:16.810Z,7.30
2018-01-12T11:50:44.578Z,7.20
2018-01-12T11:53:12.162Z,7.20
2018-01-12T11:55:40.627Z,7.30
2018-01-12T11:58:08.281Z,7.30
2018-01-12T12:00:35.941Z,7.30
2018-01-12T12:03:03.593Z,7.20
2018-01-12T12:05:31.221Z,7.10
2018-01-12T12:07:58.821Z,7.10
2018-01-12T12:10:26.483Z,7.20
2018-01-12T12:12:54.156Z,7.30
2018-01-12T12:15:21.798Z,7.30
2018-01-12T12:17:49.395Z,7.30
2018-01-12T12:20:17.305Z,7.30
2018-01-12T12:22:44.921Z,7.30
2018-01-12T12:25:12.597Z,7.40
2018-01-12T12:27:40.213Z,7.40
2018-01-12T12:30:07.831Z,7.40
2018-01-12T12:32:36.258Z,7.30
2018-01-12T12:35:03.826Z,7.30
2018-01-12T12:37:31.482Z,7.30
2018-01-12T12:39:59.080Z,7.30
2018-01-12T12:42:26.776Z,7.30
2018-01-12T12:44:54.489Z,7.30
2018-01-12T12:47:22.104Z,7.30
2018-01-12T12:49:49.723Z,7.40
2018-01-12T12:52:17.306Z,7.30
2018-01-12T12:54:45.700Z,7.00
2018-01-12T12:57:13.301Z,7.00
2018-01-12T12:59:40.927Z,7.00
2018-01-12T13:02:08.576Z,7.10
2018-01-12T13:04:36.194Z,7.10
2018-01-12T13:07:03.843Z,7.10
2018-01-12T13:09:31.480Z,7.10
2018-01-12T13:11:59.084Z,7.20
2018-01-12T13:14:26.699Z,7.30
2018-01-12T13:16:54.449Z,7.40
2018-01-12T13:19:23.661Z,7.50
2018-01-12T13:21:51.274Z,7.50
2018-01-12T13:24:18.976Z,7.50
2018-01-12T13:26:47.366Z,7.50
2018-01-12T13:29:15.023Z,7.50
2018-01-12T13:31:42.646Z,7.50
2018-01-12T13:34:10.281Z,7.60
2018-01-12T13:36:37.864Z,7.70
2018-01-12T13:39:06.315Z,7.80
2018-01-12T13:41:33.950Z,7.80
2018-01-12T13:44:01.630Z,7.90
2018-01-12T13:46:29.298Z,7.90
2018-01-12T13:48:56.992Z,7.90
2018-01-12T13:51:24.558Z,7.90
2018-01-12T13:53:52.241Z,8.00
2018-01-12T13:56:19.859Z,8.00
2018-01-12T13:58:47.489Z,7.90
2018-01-12T14:01:15.058Z,7.90
2018-01-12T14:03:42.669Z,7.70
2018-01-12T14:06:10.307Z,7.50
2018-01-12T14:08:38.741Z,7.50
2018-01-12T14:11:06.320Z,7.50
2018-01-12T14:13:33.989Z,7.50
2018-01-12T14:16:02.406Z,7.50
2018-01-12T14:18:31.201Z,7.50
2018-01-12T14:20:58.837Z,7.60
2018-01-12T14:23:26.529Z,7.50
2018-01-12T14:25:54.253Z,7.50
2018-01-12T14:28:22.673Z,7.50
2018-01-12T14:30:50.294Z,7.50
2018-01-12T14:33:17.873Z,7.40
2018-01-12T14:35:54.070Z,7.20
2018-01-12T14:38:21.688Z,7.20
2018-01-12T14:40:50.088Z,7.20
2018-01-12T14:43:17.892Z,7.10
2018-01-12T14:45:45.508Z,7.10
2018-01-12T14:48:13.130Z,7.10
2018-01-12T14:50:40.813Z,7.10
2018-01-12T14:53:08.476Z,7.10
2018-01-12T14:55:36.665Z,7.10
2018-01-12T14:58:04.562Z,7.20
2018-01-12T15:00:32.207Z,7.20
2018-01-12T15:02:59.781Z,7.00
2018-01-12T15:05:27.948Z,7.00
2018-01-12T15:07:55.562Z,6.90
2018-01-12T15:10:23.162Z,7.00
2018-01-12T15:12:50.774Z,7.00
2018-01-12T15:15:19.348Z,6.80
2018-01-12T15:17:47.033Z,6.80
2018-01-12T15:20:15.079Z,6.80
2018-01-12T15:22:42.966Z,6.80
2018-01-12T15:25:10.613Z,6.90
2018-01-12T15:27:39.240Z,6.80
2018-01-12T15:30:07.059Z,6.80
2018-01-12T15:32:35.115Z,6.80
2018-01-12T15:35:04.362Z,6.70
2018-01-12T15:37:32.349Z,6.70
2018-01-12T15:40:00.019Z,6.80
2018-01-12T15:42:27.664Z,6.70
2018-01-12T15:44:55.281Z,6.70
2018-01-12T15:47:22.892Z,6.70
2018-01-12T15:49:50.486Z,6.80
2018-01-12T15:52:18.133Z,6.70
2018-01-12T15:54:45.709Z,6.60
2018-01-12T15:57:13.302Z,6.60
2018-01-12T15:59:40.937Z,6.60
2018-01-12T16:02:08.501Z,6.60
2018-01-12T16:04:36.108Z,6.60
2018-01-12T16:07:03.672Z,6.60
2018-01-12T16:09:31.379Z,6.60
2018-01-12T16:11:58.989Z,6.60
2018-01-12T16:14:26.583Z,6.60
2018-01-12T16:16:54.204Z,6.60
2018-01-12T16:19:21.790Z,6.60
2018-01-12T16:21:49.402Z,6.60
2018-01-12T16:24:17.021Z,6.50
2018-01-12T16:26:44.632Z,6.50
2018-01-12T16:29:12.219Z,6.60
2018-01-12T16:31:42.875Z,6.50
2018-01-12T16:34:10.472Z,6.50
2018-01-12T16:36:38.060Z,6.60
2018-01-12T16:39:06.403Z,6.60
2018-01-12T16:41:34.026Z,6.50
2018-01-12T16:44:01.704Z,6.50
2018-01-12T16:46:29.272Z,6.50
2018-01-12T16:48:56.920Z,6.50
2018-01-12T16:51:24.505Z,6.40
2018-01-12T16:53:52.117Z,6.40
2018-01-12T16:56:19.696Z,6.40
2018-01-12T16:58:47.358Z,6.30
2018-01-12T17:01:14.940Z,6.20
2018-01-12T17:03:42.614Z,6.20
2018-01-12T17:06:10.181Z,6.20
2018-01-12T17:08:37.786Z,6.20
2018-01-12T17:11:05.365Z,6.20
2018-01-12T17:13:33.248Z,6.20
2018-01-12T17:16:03.078Z,6.10
2018-01-12T17:18:32.573Z,6.10
2018-01-12T17:21:02.055Z,6.00
2018-01-12T17:23:31.601Z,6.00
2018-01-12T17:26:01.183Z,6.10
2018-01-12T17:28:30.391Z,6.20
2018-01-12T17:31:00.077Z,6.20
2018-01-12T17:33:29.909Z,6.20
2018-01-12T17:35:59.665Z,6.20
2018-01-12T17:38:30.992Z,6.00
2018-01-12T17:41:00.897Z,6.00
2018-01-12T17:43:33.367Z,6.00
2018-01-12T17:46:02.925Z,6.10
2018-01-12T17:48:31.249Z,6.10
2018-01-12T17:50:58.898Z,6.10
2018-01-12T17:53:27.238Z,6.10
2018-01-12T17:55:55.587Z,6.10
2018-01-12T17:58:23.193Z,6.10
2018-01-12T18:00:50.792Z,6.10
2018-01-12T18:03:18.403Z,6.10
2018-01-12T18:05:46.011Z,6.10
2018-01-12T18:08:13.629Z,6.00
2018-01-12T18:10:41.989Z,6.00
2018-01-12T18:13:09.594Z,6.00
2018-01-12T18:15:37.178Z,6.00
2018-01-12T18:18:04.814Z,6.00
2018-01-12T18:20:32.417Z,6.00
2018-01-12T18:23:00.120Z,5.90
2018-01-12T18:25:28.491Z,5.80
2018-01-12T18:27:56.845Z,5.80
2018-01-12T18:30:24.454Z,5.80
2018-01-12T18:32:52.046Z,5.90
2018-01-12T18:35:19.676Z,5.90
2018-01-12T18:37:47.311Z,5.80
2018-01-12T18:40:15.682Z,6.00
2018-01-12T18:42:43.296Z,5.90
2018-01-12T18:45:10.902Z,6.00
2018-01-12T18:47:38.505Z,6.00
2018-01-12T18:50:06.064Z,6.00
2018-01-12T18:52:33.713Z,5.90
2018-01-12T18:55:01.345Z,5.90
2018-01-12T18:57:28.957Z,5.70
2018-01-12T18:59:56.572Z,5.70
2018-01-12T19:02:24.181Z,5.80
2018-01-12T19:04:52.528Z,5.90
2018-01-12T19:07:20.174Z,5.90
2018-01-12T19:09:47.732Z,5.90
2018-01-12T19:12:18.150Z,5.90
2018-01-12T19:14:46.594Z,6.00
2018-01-12T19:17:14.222Z,6.00
2018-01-12T19:19:41.851Z,6.00
2018-01-12T19:22:09.467Z,5.70
2018-01-12T19:24:37.044Z,5.50
2018-01-12T19:27:04.630Z,5.40
2018-01-12T19:29:32.258Z,5.40
2018-01-12T19:31:59.834Z,5.40
2018-01-12T19:34:27.480Z,5.40
2018-01-12T19:36:55.100Z,5.30
2018-01-12T19:39:22.730Z,5.30
2018-01-12T19:41:50.308Z,5.40
2018-01-12T19:44:17.930Z,5.50
2018-01-12T19:46:45.521Z,5.50
2018-01-12T19:49:13.155Z,5.60
2018-01-12T19:51:40.743Z,5.70
2018-01-12T19:54:08.386Z,5.80
2018-01-12T19:56:35.956Z,5.80
2018-01-12T19:59:03.529Z,5.70
2018-01-12T20:01:32.171Z,5.70
2018-01-12T20:03:59.804Z,5.70
2018-01-12T20:06:28.175Z,5.60
2018-01-12T20:08:55.738Z,5.60
2018-01-12T20:11:24.161Z,5.60
2018-01-12T20:13:51.784Z,5.60
2018-01-12T20:16:20.144Z,5.70
2018-01-12T20:18:47.722Z,5.70
2018-01-12T20:21:16.146Z,5.70
2018-01-12T20:23:43.720Z,5.70
2018-01-12T20:26:11.354Z,5.60
2018-01-12T20:28:38.929Z,5.40
2018-01-12T20:31:06.548Z,5.40
2018-01-12T20:33:34.964Z,5.50
2018-01-12T20:36:02.600Z,5.50
2018-01-12T20:38:30.436Z,5.30
2018-01-12T20:40:58.041Z,5.30
2018-01-12T20:43:25.686Z,5.50
2018-01-12T20:45:54.034Z,5.50
2018-01-12T20:48:21.622Z,5.50
2018-01-12T20:50:49.261Z,5.40
2018-01-12T20:53:16.841Z,5.50
2018-01-12T20:55:45.204Z,5.40
2018-01-12T20:58:12.817Z,5.40
2018-01-12T21:00:40.425Z,5.40
2018-01-12T21:03:10.014Z,5.40
2018-01-12T21:05:37.632Z,5.40
2018-01-12T21:08:05.268Z,5.50
2018-01-12T21:10:32.832Z,5.50
2018-01-12T21:13:00.476Z,5.60
2018-01-12T21:15:28.069Z,5.60
2018-01-12T21:17:56.543Z,5.60
2018-01-12T21:20:24.890Z,5.60
2018-01-12T21:22:52.476Z,5.60
2018-01-12T21:25:20.105Z,5.50
2018-01-12T21:27:47.673Z,5.60
2018-01-12T21:30:15.248Z,5.60
2018-01-12T21:32:43.723Z,5.70
2018-01-12T21:35:11.300Z,5.70
2018-01-12T21:37:39.637Z,5.60
2018-01-12T21:40:07.230Z,5.60
2018-01-12T21:42:34.859Z,5.60
2018-01-12T21:45:02.456Z,5.60
2018-01-12T21:47:30.074Z,5.60
2018-01-12T21:49:57.682Z,5.60
2018-01-12T21:52:26.087Z,5.50
2018-01-12T21:54:53.833Z,5.50
2018-01-12T21:57:21.416Z,5.40
2018-01-12T21:59:49.045Z,5.30
2018-01-12T22:02:16.659Z,5.30
2018-01-12T22:04:44.317Z,5.40
2018-01-12T22:07:11.901Z,5.50
2018-01-12T22:09:39.504Z,5.50
2018-01-12T22:12:07.985Z,5.50
2018-01-12T22:14:36.373Z,5.30
2018-01-12T22:17:04.099Z,5.30
2018-01-12T22:19:31.755Z,5.20
2018-01-12T22:21:59.491Z,5.20
2018-01-12T22:24:27.113Z,5.10
2018-01-12T22:26:55.525Z,5.30
2018-01-12T22:29:23.139Z,5.30
2018-01-12T22:31:50.727Z,5.30
2018-01-12T22:34:18.361Z,5.40
2018-01-12T22:36:46.750Z,5.50
2018-01-12T22:39:15.153Z,5.50
2018-01-12T22:41:42.801Z,5.50
2018-01-12T22:44:11.190Z,5.50
2018-01-12T22:46:38.827Z,5.50
2018-01-12T22:49:06.419Z,5.50
2018-01-12T22:51:34.804Z,5.50
2018-01-12T22:54:02.386Z,5.40
2018-01-12T22:56:30.026Z,5.50
2018-01-12T22:58:57.598Z,5.50
2018-01-12T23:01:25.219Z,5.40
2018-01-12T23:03:52.838Z,5.40
2018-01-12T23:06:20.431Z,5.40
2018-01-12T23:08:48.067Z,5.40
2018-01-12T23:11:15.649Z,5.40
2018-01-12T23:13:43.261Z,5.50
2018-01-12T23:16:10.851Z,5.40
2018-01-12T23:18:38.440Z,5.40
2018-01-12T23:21:06.050Z,5.50
2018-01-12T23:23:33.679Z,5.60
2018-01-12T23:26:02.084Z,5.50
2018-01-12T23:28:29.672Z,5.50
2018-01-12T23:30:57.306Z,5.50
2018-01-12T23:33:24.885Z,5.50
2018-01-12T23:35:52.462Z,5.50
2018-01-12T23:38:20.110Z,5.50
2018-01-12T23:40:47.693Z,5.50
2018-01-12T23:43:15.262Z,5.50
2018-01-12T23:45:42.909Z,5.50
2018-01-12T23:48:10.480Z,5.60
2018-01-12T23:50:38.068Z,5.60
2018-01-12T23:53:06.475Z,5.70
2018-01-12T23:55:34.079Z,5.70
2018-01-12T23:58:01.673Z,5.60
